sensor_id;sensor_type;location;lat;lon;timestamp;P1;durP1;ratioP1;P2;durP2;ratioP2
68653;SDS011;55636;51.108;13.622;2023-03-01T00:00:00;26.40;;;18.30;;
68653;SDS011;55636;51.108;13.622;2023-03-01T00:01:03;23.83;;;18.13;;
68653;SDS011;55636;51.108;13.622;2023-03-01T00:02:07;24.87;;;17.93;;
68653;SDS011;55636;51.108;13.622;2023-03-01T00:03:09;22.40;;;17.93;;
68653;SDS011;55636;51.108;13.622;2023-03-01T00:04:11;26.27;;;18.10;;
68653;SDS011;55636;51.108;13.622;2023-03-01T00:05:14;25.60;;;18.80;;
68653;SDS011;55636;51.108;13.622;2023-03-01T00:06:16;23.37;;;18.57;;
68653;SDS011;55636;51.108;13.622;2023-03-01T00:07:18;24.30;;;18.07;;
68653;SDS011;55636;51.108;13.622;2023-03-01T00:08:20;25.03;;;18.13;;
68653;SDS011;55636;51.108;13.622;2023-03-01T00:09:23;24.03;;;18.50;;
68653;SDS011;55636;51.108;13.622;2023-03-01T00:10:25;22.53;;;17.10;;
68653;SDS011;55636;51.108;13.622;2023-03-01T00:11:30;22.80;;;17.10;;
68653;SDS011;55636;51.108;13.622;2023-03-01T00:12:35;21.60;;;17.10;;
68653;SDS011;55636;51.108;13.622;2023-03-01T00:13:38;22.53;;;17.30;;
68653;SDS011;55636;51.108;13.622;2023-03-01T00:14:41;23.43;;;17.40;;
68653;SDS011;55636;51.108;13.622;2023-03-01T00:15:43;22.70;;;17.53;;
68653;SDS011;55636;51.108;13.622;2023-03-01T00:16:46;23.10;;;17.33;;
68653;SDS011;55636;51.108;13.622;2023-03-01T00:17:48;21.85;;;16.27;;
68653;SDS011;55636;51.108;13.622;2023-03-01T00:18:50;24.30;;;16.80;;
68653;SDS011;55636;51.108;13.622;2023-03-01T00:19:53;22.50;;;16.93;;
68653;SDS011;55636;51.108;13.622;2023-03-01T00:20:55;21.37;;;15.93;;
68653;SDS011;55636;51.108;13.622;2023-03-01T00:21:58;22.10;;;17.13;;
68653;SDS011;55636;51.108;13.622;2023-03-01T00:23:00;22.40;;;16.53;;
68653;SDS011;55636;51.108;13.622;2023-03-01T00:24:03;22.87;;;16.77;;
68653;SDS011;55636;51.108;13.622;2023-03-01T00:25:07;23.27;;;17.00;;
68653;SDS011;55636;51.108;13.622;2023-03-01T00:26:11;23.93;;;17.17;;
68653;SDS011;55636;51.108;13.622;2023-03-01T00:27:16;23.10;;;17.03;;
68653;SDS011;55636;51.108;13.622;2023-03-01T00:28:18;24.52;;;17.27;;
68653;SDS011;55636;51.108;13.622;2023-03-01T00:29:21;23.47;;;16.97;;
68653;SDS011;55636;51.108;13.622;2023-03-01T00:30:25;22.50;;;16.20;;
68653;SDS011;55636;51.108;13.622;2023-03-01T00:31:29;25.93;;;17.60;;
68653;SDS011;55636;51.108;13.622;2023-03-01T00:32:34;22.87;;;16.73;;
68653;SDS011;55636;51.108;13.622;2023-03-01T00:33:36;23.10;;;18.30;;
68653;SDS011;55636;51.108;13.622;2023-03-01T00:34:39;23.88;;;17.30;;
68653;SDS011;55636;51.108;13.622;2023-03-01T00:35:41;23.93;;;16.63;;
68653;SDS011;55636;51.108;13.622;2023-03-01T00:36:44;24.73;;;17.33;;
68653;SDS011;55636;51.108;13.622;2023-03-01T00:37:48;23.27;;;17.03;;
68653;SDS011;55636;51.108;13.622;2023-03-01T00:39:00;21.50;;;16.38;;
68653;SDS011;55636;51.108;13.622;2023-03-01T00:40:03;25.20;;;16.33;;
68653;SDS011;55636;51.108;13.622;2023-03-01T00:41:09;21.15;;;15.93;;
68653;SDS011;55636;51.108;13.622;2023-03-01T00:42:13;21.70;;;16.20;;
68653;SDS011;55636;51.108;13.622;2023-03-01T00:43:16;22.60;;;16.03;;
68653;SDS011;55636;51.108;13.622;2023-03-01T00:44:18;22.42;;;16.80;;
68653;SDS011;55636;51.108;13.622;2023-03-01T00:45:21;24.90;;;17.27;;
68653;SDS011;55636;51.108;13.622;2023-03-01T00:46:24;23.75;;;16.73;;
68653;SDS011;55636;51.108;13.622;2023-03-01T00:47:29;22.40;;;16.60;;
68653;SDS011;55636;51.108;13.622;2023-03-01T00:48:31;21.63;;;16.07;;
68653;SDS011;55636;51.108;13.622;2023-03-01T00:49:35;22.20;;;16.37;;
68653;SDS011;55636;51.108;13.622;2023-03-01T00:50:37;21.73;;;16.70;;
68653;SDS011;55636;51.108;13.622;2023-03-01T00:51:39;21.17;;;15.90;;
68653;SDS011;55636;51.108;13.622;2023-03-01T00:52:43;20.13;;;15.73;;
68653;SDS011;55636;51.108;13.622;2023-03-01T00:53:45;22.20;;;15.88;;
68653;SDS011;55636;51.108;13.622;2023-03-01T00:54:48;21.00;;;16.30;;
68653;SDS011;55636;51.108;13.622;2023-03-01T00:55:51;21.83;;;16.13;;
68653;SDS011;55636;51.108;13.622;2023-03-01T00:56:53;22.00;;;16.17;;
68653;SDS011;55636;51.108;13.622;2023-03-01T00:57:56;20.97;;;15.87;;
68653;SDS011;55636;51.108;13.622;2023-03-01T00:58:58;24.13;;;16.93;;
68653;SDS011;55636;51.108;13.622;2023-03-01T01:00:00;23.63;;;17.60;;
68653;SDS011;55636;51.108;13.622;2023-03-01T01:01:09;22.70;;;16.88;;
68653;SDS011;55636;51.108;13.622;2023-03-01T01:02:19;23.20;;;16.05;;
68653;SDS011;55636;51.108;13.622;2023-03-01T01:03:22;20.00;;;16.10;;
68653;SDS011;55636;51.108;13.622;2023-03-01T01:04:27;19.60;;;15.35;;
68653;SDS011;55636;51.108;13.622;2023-03-01T01:05:29;22.27;;;15.57;;
68653;SDS011;55636;51.108;13.622;2023-03-01T01:06:34;21.67;;;16.83;;
68653;SDS011;55636;51.108;13.622;2023-03-01T01:07:44;22.27;;;16.05;;
68653;SDS011;55636;51.108;13.622;2023-03-01T01:08:47;23.60;;;16.25;;
68653;SDS011;55636;51.108;13.622;2023-03-01T01:09:50;20.25;;;15.60;;
68653;SDS011;55636;51.108;13.622;2023-03-01T01:10:54;22.27;;;16.23;;
68653;SDS011;55636;51.108;13.622;2023-03-01T01:11:56;22.17;;;15.90;;
68653;SDS011;55636;51.108;13.622;2023-03-01T01:12:59;21.87;;;16.30;;
68653;SDS011;55636;51.108;13.622;2023-03-01T01:14:03;21.92;;;16.48;;
68653;SDS011;55636;51.108;13.622;2023-03-01T01:15:05;20.23;;;15.60;;
68653;SDS011;55636;51.108;13.622;2023-03-01T01:16:08;21.75;;;16.27;;
68653;SDS011;55636;51.108;13.622;2023-03-01T01:17:11;20.60;;;15.63;;
68653;SDS011;55636;51.108;13.622;2023-03-01T01:18:14;18.85;;;15.55;;
68653;SDS011;55636;51.108;13.622;2023-03-01T01:19:17;20.73;;;15.55;;
68653;SDS011;55636;51.108;13.622;2023-03-01T01:20:19;20.27;;;15.50;;
68653;SDS011;55636;51.108;13.622;2023-03-01T01:21:22;20.27;;;15.77;;
68653;SDS011;55636;51.108;13.622;2023-03-01T01:22:26;21.33;;;15.02;;
68653;SDS011;55636;51.108;13.622;2023-03-01T01:23:30;22.50;;;15.88;;
68653;SDS011;55636;51.108;13.622;2023-03-01T01:24:33;24.65;;;16.83;;
68653;SDS011;55636;51.108;13.622;2023-03-01T01:25:35;21.88;;;16.48;;
68653;SDS011;55636;51.108;13.622;2023-03-01T01:26:38;22.67;;;16.85;;
68653;SDS011;55636;51.108;13.622;2023-03-01T01:27:40;21.65;;;16.00;;
68653;SDS011;55636;51.108;13.622;2023-03-01T01:28:43;20.67;;;16.27;;
68653;SDS011;55636;51.108;13.622;2023-03-01T01:29:46;21.27;;;16.65;;
68653;SDS011;55636;51.108;13.622;2023-03-01T01:30:49;22.55;;;16.25;;
68653;SDS011;55636;51.108;13.622;2023-03-01T01:31:51;22.13;;;16.40;;
68653;SDS011;55636;51.108;13.622;2023-03-01T01:32:53;20.73;;;15.88;;
68653;SDS011;55636;51.108;13.622;2023-03-01T01:33:57;20.95;;;16.15;;
68653;SDS011;55636;51.108;13.622;2023-03-01T01:35:01;21.40;;;16.08;;
68653;SDS011;55636;51.108;13.622;2023-03-01T01:36:04;22.55;;;16.38;;
68653;SDS011;55636;51.108;13.622;2023-03-01T01:37:08;20.98;;;16.10;;
68653;SDS011;55636;51.108;13.622;2023-03-01T01:38:11;23.15;;;16.25;;
68653;SDS011;55636;51.108;13.622;2023-03-01T01:39:13;22.30;;;16.02;;
68653;SDS011;55636;51.108;13.622;2023-03-01T01:40:15;21.42;;;15.90;;
68653;SDS011;55636;51.108;13.622;2023-03-01T01:41:21;21.77;;;15.82;;
68653;SDS011;55636;51.108;13.622;2023-03-01T01:42:24;20.73;;;15.77;;
68653;SDS011;55636;51.108;13.622;2023-03-01T01:43:27;22.05;;;16.08;;
68653;SDS011;55636;51.108;13.622;2023-03-01T01:44:33;19.93;;;15.57;;
68653;SDS011;55636;51.108;13.622;2023-03-01T01:45:35;22.15;;;15.88;;
68653;SDS011;55636;51.108;13.622;2023-03-01T01:47:00;21.20;;;15.65;;
68653;SDS011;55636;51.108;13.622;2023-03-01T01:48:28;21.13;;;15.77;;
68653;SDS011;55636;51.108;13.622;2023-03-01T01:49:43;22.50;;;15.80;;
68653;SDS011;55636;51.108;13.622;2023-03-01T01:50:57;20.90;;;15.13;;
68653;SDS011;55636;51.108;13.622;2023-03-01T01:53:12;20.92;;;15.60;;
68653;SDS011;55636;51.108;13.622;2023-03-01T01:54:19;21.83;;;15.55;;
68653;SDS011;55636;51.108;13.622;2023-03-01T01:55:25;20.70;;;15.68;;
68653;SDS011;55636;51.108;13.622;2023-03-01T01:56:33;20.45;;;15.70;;
68653;SDS011;55636;51.108;13.622;2023-03-01T01:57:41;20.83;;;15.55;;
68653;SDS011;55636;51.108;13.622;2023-03-01T01:58:49;20.58;;;15.32;;
68653;SDS011;55636;51.108;13.622;2023-03-01T01:59:53;18.63;;;14.60;;
68653;SDS011;55636;51.108;13.622;2023-03-01T02:00:59;21.13;;;15.68;;
68653;SDS011;55636;51.108;13.622;2023-03-01T02:02:03;22.52;;;15.63;;
68653;SDS011;55636;51.108;13.622;2023-03-01T02:03:11;22.38;;;16.27;;
68653;SDS011;55636;51.108;13.622;2023-03-01T02:04:19;21.85;;;15.60;;
68653;SDS011;55636;51.108;13.622;2023-03-01T02:05:26;20.45;;;15.18;;
68653;SDS011;55636;51.108;13.622;2023-03-01T02:06:38;20.23;;;15.35;;
68653;SDS011;55636;51.108;13.622;2023-03-01T02:07:46;22.70;;;15.63;;
68653;SDS011;55636;51.108;13.622;2023-03-01T02:08:54;22.10;;;16.15;;
68653;SDS011;55636;51.108;13.622;2023-03-01T02:10:03;20.05;;;15.23;;
68653;SDS011;55636;51.108;13.622;2023-03-01T02:11:06;21.58;;;15.38;;
68653;SDS011;55636;51.108;13.622;2023-03-01T02:12:11;20.77;;;16.20;;
68653;SDS011;55636;51.108;13.622;2023-03-01T02:13:14;21.95;;;15.57;;
68653;SDS011;55636;51.108;13.622;2023-03-01T02:14:17;22.17;;;16.23;;
68653;SDS011;55636;51.108;13.622;2023-03-01T02:15:20;23.17;;;16.85;;
68653;SDS011;55636;51.108;13.622;2023-03-01T02:16:23;21.77;;;16.38;;
68653;SDS011;55636;51.108;13.622;2023-03-01T02:17:25;20.92;;;15.23;;
68653;SDS011;55636;51.108;13.622;2023-03-01T02:18:29;20.70;;;15.90;;
68653;SDS011;55636;51.108;13.622;2023-03-01T02:22:40;21.20;;;14.55;;
68653;SDS011;55636;51.108;13.622;2023-03-01T02:23:46;21.33;;;15.30;;
68653;SDS011;55636;51.108;13.622;2023-03-01T02:24:56;21.48;;;15.55;;
68653;SDS011;55636;51.108;13.622;2023-03-01T02:26:33;20.17;;;15.50;;
68653;SDS011;55636;51.108;13.622;2023-03-01T02:29:20;20.40;;;14.77;;
68653;SDS011;55636;51.108;13.622;2023-03-01T02:30:25;19.10;;;15.18;;
68653;SDS011;55636;51.108;13.622;2023-03-01T02:31:27;20.92;;;15.40;;
68653;SDS011;55636;51.108;13.622;2023-03-01T02:32:46;23.50;;;16.30;;
68653;SDS011;55636;51.108;13.622;2023-03-01T02:33:51;20.83;;;15.50;;
68653;SDS011;55636;51.108;13.622;2023-03-01T02:34:55;21.00;;;15.45;;
68653;SDS011;55636;51.108;13.622;2023-03-01T02:36:05;22.58;;;15.38;;
68653;SDS011;55636;51.108;13.622;2023-03-01T02:37:13;21.27;;;14.82;;
68653;SDS011;55636;51.108;13.622;2023-03-01T02:38:22;20.83;;;15.65;;
68653;SDS011;55636;51.108;13.622;2023-03-01T02:39:30;21.80;;;15.82;;
68653;SDS011;55636;51.108;13.622;2023-03-01T02:40:38;21.33;;;15.10;;
68653;SDS011;55636;51.108;13.622;2023-03-01T02:41:44;21.38;;;15.45;;
68653;SDS011;55636;51.108;13.622;2023-03-01T02:42:51;21.10;;;15.20;;
68653;SDS011;55636;51.108;13.622;2023-03-01T02:43:56;21.10;;;15.35;;
68653;SDS011;55636;51.108;13.622;2023-03-01T02:44:58;20.50;;;15.00;;
68653;SDS011;55636;51.108;13.622;2023-03-01T02:46:08;20.63;;;15.13;;
68653;SDS011;55636;51.108;13.622;2023-03-01T02:47:16;20.65;;;15.57;;
68653;SDS011;55636;51.108;13.622;2023-03-01T02:48:19;20.08;;;14.85;;
68653;SDS011;55636;51.108;13.622;2023-03-01T02:49:26;20.55;;;15.25;;
68653;SDS011;55636;51.108;13.622;2023-03-01T02:50:45;18.88;;;15.02;;
68653;SDS011;55636;51.108;13.622;2023-03-01T02:54:12;20.20;;;14.83;;
68653;SDS011;55636;51.108;13.622;2023-03-01T02:55:30;20.27;;;14.25;;
68653;SDS011;55636;51.108;13.622;2023-03-01T02:56:32;22.63;;;16.02;;
68653;SDS011;55636;51.108;13.622;2023-03-01T02:57:35;21.50;;;15.65;;
68653;SDS011;55636;51.108;13.622;2023-03-01T02:58:40;20.77;;;15.70;;
68653;SDS011;55636;51.108;13.622;2023-03-01T02:59:48;20.45;;;14.82;;
68653;SDS011;55636;51.108;13.622;2023-03-01T03:00:53;19.77;;;15.02;;
68653;SDS011;55636;51.108;13.622;2023-03-01T03:01:56;21.08;;;14.82;;
68653;SDS011;55636;51.108;13.622;2023-03-01T03:02:58;21.00;;;15.10;;
68653;SDS011;55636;51.108;13.622;2023-03-01T03:04:03;21.48;;;16.05;;
68653;SDS011;55636;51.108;13.622;2023-03-01T03:05:11;21.13;;;15.13;;
68653;SDS011;55636;51.108;13.622;2023-03-01T03:06:16;21.30;;;15.18;;
68653;SDS011;55636;51.108;13.622;2023-03-01T03:07:18;21.17;;;16.15;;
68653;SDS011;55636;51.108;13.622;2023-03-01T03:08:20;21.75;;;15.30;;
68653;SDS011;55636;51.108;13.622;2023-03-01T03:09:28;20.65;;;15.32;;
68653;SDS011;55636;51.108;13.622;2023-03-01T03:10:32;20.17;;;15.23;;
68653;SDS011;55636;51.108;13.622;2023-03-01T03:11:39;20.25;;;15.15;;
68653;SDS011;55636;51.108;13.622;2023-03-01T03:12:42;20.13;;;15.10;;
68653;SDS011;55636;51.108;13.622;2023-03-01T03:13:45;20.92;;;14.80;;
68653;SDS011;55636;51.108;13.622;2023-03-01T03:14:50;20.83;;;15.18;;
68653;SDS011;55636;51.108;13.622;2023-03-01T03:15:54;20.13;;;15.65;;
68653;SDS011;55636;51.108;13.622;2023-03-01T03:16:57;19.77;;;15.63;;
68653;SDS011;55636;51.108;13.622;2023-03-01T03:18:00;20.15;;;15.68;;
68653;SDS011;55636;51.108;13.622;2023-03-01T03:19:02;18.50;;;14.68;;
68653;SDS011;55636;51.108;13.622;2023-03-01T03:20:10;19.80;;;14.63;;
68653;SDS011;55636;51.108;13.622;2023-03-01T03:21:14;19.65;;;14.80;;
68653;SDS011;55636;51.108;13.622;2023-03-01T03:22:17;21.50;;;15.82;;
68653;SDS011;55636;51.108;13.622;2023-03-01T03:23:20;20.80;;;14.82;;
68653;SDS011;55636;51.108;13.622;2023-03-01T03:24:23;22.73;;;16.05;;
68653;SDS011;55636;51.108;13.622;2023-03-01T03:25:26;20.40;;;14.80;;
68653;SDS011;55636;51.108;13.622;2023-03-01T03:26:29;20.92;;;15.20;;
68653;SDS011;55636;51.108;13.622;2023-03-01T03:27:32;22.08;;;15.07;;
68653;SDS011;55636;51.108;13.622;2023-03-01T03:28:34;19.63;;;15.00;;
68653;SDS011;55636;51.108;13.622;2023-03-01T03:29:37;20.58;;;15.48;;
68653;SDS011;55636;51.108;13.622;2023-03-01T03:30:39;19.73;;;14.85;;
68653;SDS011;55636;51.108;13.622;2023-03-01T03:31:42;19.90;;;14.40;;
68653;SDS011;55636;51.108;13.622;2023-03-01T03:32:46;20.48;;;14.85;;
68653;SDS011;55636;51.108;13.622;2023-03-01T03:33:54;19.58;;;14.30;;
68653;SDS011;55636;51.108;13.622;2023-03-01T03:34:56;19.02;;;14.45;;
68653;SDS011;55636;51.108;13.622;2023-03-01T03:35:58;19.85;;;15.18;;
68653;SDS011;55636;51.108;13.622;2023-03-01T03:37:01;20.50;;;14.85;;
68653;SDS011;55636;51.108;13.622;2023-03-01T03:38:04;20.75;;;15.77;;
68653;SDS011;55636;51.108;13.622;2023-03-01T03:39:13;21.58;;;15.00;;
68653;SDS011;55636;51.108;13.622;2023-03-01T03:40:16;18.65;;;14.48;;
68653;SDS011;55636;51.108;13.622;2023-03-01T03:41:19;17.83;;;13.85;;
68653;SDS011;55636;51.108;13.622;2023-03-01T03:42:22;20.70;;;15.13;;
68653;SDS011;55636;51.108;13.622;2023-03-01T03:43:25;20.55;;;14.80;;
68653;SDS011;55636;51.108;13.622;2023-03-01T03:44:27;19.25;;;14.40;;
68653;SDS011;55636;51.108;13.622;2023-03-01T03:45:30;19.23;;;14.30;;
68653;SDS011;55636;51.108;13.622;2023-03-01T03:46:35;20.30;;;14.98;;
68653;SDS011;55636;51.108;13.622;2023-03-01T03:47:39;20.55;;;14.90;;
68653;SDS011;55636;51.108;13.622;2023-03-01T03:48:42;19.70;;;15.02;;
68653;SDS011;55636;51.108;13.622;2023-03-01T03:49:46;20.98;;;15.05;;
68653;SDS011;55636;51.108;13.622;2023-03-01T03:50:52;19.75;;;14.60;;
68653;SDS011;55636;51.108;13.622;2023-03-01T03:51:57;20.13;;;15.05;;
68653;SDS011;55636;51.108;13.622;2023-03-01T03:53:02;21.20;;;14.65;;
68653;SDS011;55636;51.108;13.622;2023-03-01T03:54:06;21.80;;;15.38;;
68653;SDS011;55636;51.108;13.622;2023-03-01T03:55:09;22.48;;;15.13;;
68653;SDS011;55636;51.108;13.622;2023-03-01T03:56:13;20.23;;;14.48;;
68653;SDS011;55636;51.108;13.622;2023-03-01T03:57:17;19.30;;;14.88;;
68653;SDS011;55636;51.108;13.622;2023-03-01T03:58:20;19.60;;;14.82;;
68653;SDS011;55636;51.108;13.622;2023-03-01T03:59:24;20.92;;;14.52;;
68653;SDS011;55636;51.108;13.622;2023-03-01T04:00:26;22.67;;;14.82;;
68653;SDS011;55636;51.108;13.622;2023-03-01T04:01:28;18.95;;;14.65;;
68653;SDS011;55636;51.108;13.622;2023-03-01T04:02:31;21.17;;;15.23;;
68653;SDS011;55636;51.108;13.622;2023-03-01T04:03:33;21.58;;;15.57;;
68653;SDS011;55636;51.108;13.622;2023-03-01T04:04:37;18.80;;;14.70;;
68653;SDS011;55636;51.108;13.622;2023-03-01T04:05:39;20.17;;;14.15;;
68653;SDS011;55636;51.108;13.622;2023-03-01T04:06:42;21.42;;;14.85;;
68653;SDS011;55636;51.108;13.622;2023-03-01T04:07:44;21.30;;;15.02;;
68653;SDS011;55636;51.108;13.622;2023-03-01T04:08:47;18.60;;;14.25;;
68653;SDS011;55636;51.108;13.622;2023-03-01T04:09:52;19.98;;;15.30;;
68653;SDS011;55636;51.108;13.622;2023-03-01T04:10:59;23.20;;;15.55;;
68653;SDS011;55636;51.108;13.622;2023-03-01T04:12:22;19.73;;;14.27;;
68653;SDS011;55636;51.108;13.622;2023-03-01T04:13:24;20.20;;;14.82;;
68653;SDS011;55636;51.108;13.622;2023-03-01T04:14:27;20.77;;;15.35;;
68653;SDS011;55636;51.108;13.622;2023-03-01T04:15:29;21.38;;;15.10;;
68653;SDS011;55636;51.108;13.622;2023-03-01T04:16:32;19.73;;;14.82;;
68653;SDS011;55636;51.108;13.622;2023-03-01T04:17:35;20.23;;;14.93;;
68653;SDS011;55636;51.108;13.622;2023-03-01T04:18:40;20.10;;;15.20;;
68653;SDS011;55636;51.108;13.622;2023-03-01T04:19:42;20.33;;;14.88;;
68653;SDS011;55636;51.108;13.622;2023-03-01T04:20:46;20.73;;;14.90;;
68653;SDS011;55636;51.108;13.622;2023-03-01T04:21:50;21.95;;;14.63;;
68653;SDS011;55636;51.108;13.622;2023-03-01T04:24:22;21.83;;;14.82;;
68653;SDS011;55636;51.108;13.622;2023-03-01T04:25:24;19.15;;;14.43;;
68653;SDS011;55636;51.108;13.622;2023-03-01T04:26:27;22.08;;;14.90;;
68653;SDS011;55636;51.108;13.622;2023-03-01T04:27:30;21.88;;;14.27;;
68653;SDS011;55636;51.108;13.622;2023-03-01T04:28:34;21.40;;;14.63;;
68653;SDS011;55636;51.108;13.622;2023-03-01T04:29:38;20.05;;;13.82;;
68653;SDS011;55636;51.108;13.622;2023-03-01T04:30:41;20.88;;;15.30;;
68653;SDS011;55636;51.108;13.622;2023-03-01T04:31:44;21.77;;;15.23;;
68653;SDS011;55636;51.108;13.622;2023-03-01T04:32:50;19.83;;;14.10;;
68653;SDS011;55636;51.108;13.622;2023-03-01T04:33:53;19.50;;;14.55;;
68653;SDS011;55636;51.108;13.622;2023-03-01T04:34:59;19.45;;;13.82;;
68653;SDS011;55636;51.108;13.622;2023-03-01T04:36:02;19.77;;;14.40;;
68653;SDS011;55636;51.108;13.622;2023-03-01T04:37:07;19.27;;;14.15;;
68653;SDS011;55636;51.108;13.622;2023-03-01T04:38:13;18.63;;;14.30;;
68653;SDS011;55636;51.108;13.622;2023-03-01T04:39:15;17.15;;;13.50;;
68653;SDS011;55636;51.108;13.622;2023-03-01T04:40:18;18.48;;;13.85;;
68653;SDS011;55636;51.108;13.622;2023-03-01T04:41:21;18.20;;;13.27;;
68653;SDS011;55636;51.108;13.622;2023-03-01T04:42:24;19.33;;;14.40;;
68653;SDS011;55636;51.108;13.622;2023-03-01T04:43:27;20.75;;;14.32;;
68653;SDS011;55636;51.108;13.622;2023-03-01T04:44:29;21.55;;;14.35;;
68653;SDS011;55636;51.108;13.622;2023-03-01T04:45:32;22.42;;;15.18;;
68653;SDS011;55636;51.108;13.622;2023-03-01T04:46:36;21.58;;;14.80;;
68653;SDS011;55636;51.108;13.622;2023-03-01T04:47:39;19.25;;;14.68;;
68653;SDS011;55636;51.108;13.622;2023-03-01T04:48:43;23.23;;;14.43;;
68653;SDS011;55636;51.108;13.622;2023-03-01T04:49:46;18.27;;;13.82;;
68653;SDS011;55636;51.108;13.622;2023-03-01T04:50:49;18.80;;;14.13;;
68653;SDS011;55636;51.108;13.622;2023-03-01T04:51:51;20.08;;;14.13;;
68653;SDS011;55636;51.108;13.622;2023-03-01T04:52:54;18.45;;;14.43;;
68653;SDS011;55636;51.108;13.622;2023-03-01T04:54:01;18.52;;;14.48;;
68653;SDS011;55636;51.108;13.622;2023-03-01T04:55:04;19.55;;;14.20;;
68653;SDS011;55636;51.108;13.622;2023-03-01T04:56:07;20.30;;;14.10;;
68653;SDS011;55636;51.108;13.622;2023-03-01T04:57:10;22.08;;;14.73;;
68653;SDS011;55636;51.108;13.622;2023-03-01T04:58:12;20.88;;;14.75;;
68653;SDS011;55636;51.108;13.622;2023-03-01T04:59:15;17.08;;;13.90;;
68653;SDS011;55636;51.108;13.622;2023-03-01T05:00:17;17.95;;;13.73;;
68653;SDS011;55636;51.108;13.622;2023-03-01T05:01:40;21.25;;;13.77;;
68653;SDS011;55636;51.108;13.622;2023-03-01T05:02:44;20.10;;;13.52;;
68653;SDS011;55636;51.108;13.622;2023-03-01T05:03:56;19.38;;;14.00;;
68653;SDS011;55636;51.108;13.622;2023-03-01T05:05:05;19.33;;;14.07;;
68653;SDS011;55636;51.108;13.622;2023-03-01T05:06:07;18.27;;;13.65;;
68653;SDS011;55636;51.108;13.622;2023-03-01T05:07:10;19.35;;;14.38;;
68653;SDS011;55636;51.108;13.622;2023-03-01T05:08:15;19.23;;;13.68;;
68653;SDS011;55636;51.108;13.622;2023-03-01T05:09:20;19.00;;;13.88;;
68653;SDS011;55636;51.108;13.622;2023-03-01T05:10:24;17.73;;;13.23;;
68653;SDS011;55636;51.108;13.622;2023-03-01T05:11:27;18.60;;;14.10;;
68653;SDS011;55636;51.108;13.622;2023-03-01T05:12:33;19.73;;;14.02;;
68653;SDS011;55636;51.108;13.622;2023-03-01T05:13:36;20.45;;;13.93;;
68653;SDS011;55636;51.108;13.622;2023-03-01T05:14:39;18.73;;;14.20;;
68653;SDS011;55636;51.108;13.622;2023-03-01T05:15:42;18.73;;;13.80;;
68653;SDS011;55636;51.108;13.622;2023-03-01T05:16:44;19.45;;;13.68;;
68653;SDS011;55636;51.108;13.622;2023-03-01T05:17:47;18.98;;;14.38;;
68653;SDS011;55636;51.108;13.622;2023-03-01T05:18:50;18.55;;;13.50;;
68653;SDS011;55636;51.108;13.622;2023-03-01T05:19:52;19.23;;;14.30;;
68653;SDS011;55636;51.108;13.622;2023-03-01T05:21:05;20.48;;;14.63;;
68653;SDS011;55636;51.108;13.622;2023-03-01T05:22:12;23.23;;;14.20;;
68653;SDS011;55636;51.108;13.622;2023-03-01T05:23:14;21.35;;;14.02;;
68653;SDS011;55636;51.108;13.622;2023-03-01T05:24:16;20.52;;;14.65;;
68653;SDS011;55636;51.108;13.622;2023-03-01T05:25:20;19.65;;;14.10;;
68653;SDS011;55636;51.108;13.622;2023-03-01T05:26:23;23.33;;;14.68;;
68653;SDS011;55636;51.108;13.622;2023-03-01T05:27:30;19.13;;;14.00;;
68653;SDS011;55636;51.108;13.622;2023-03-01T05:28:33;19.27;;;13.93;;
68653;SDS011;55636;51.108;13.622;2023-03-01T05:29:35;19.20;;;13.80;;
68653;SDS011;55636;51.108;13.622;2023-03-01T05:30:38;19.35;;;13.98;;
68653;SDS011;55636;51.108;13.622;2023-03-01T05:31:40;21.23;;;14.10;;
68653;SDS011;55636;51.108;13.622;2023-03-01T05:32:44;23.55;;;14.73;;
68653;SDS011;55636;51.108;13.622;2023-03-01T05:33:47;19.67;;;14.25;;
68653;SDS011;55636;51.108;13.622;2023-03-01T05:34:49;20.45;;;13.98;;
68653;SDS011;55636;51.108;13.622;2023-03-01T05:35:54;19.55;;;14.20;;
68653;SDS011;55636;51.108;13.622;2023-03-01T05:36:56;20.55;;;14.60;;
68653;SDS011;55636;51.108;13.622;2023-03-01T05:37:59;22.45;;;13.80;;
68653;SDS011;55636;51.108;13.622;2023-03-01T05:39:01;21.77;;;14.23;;
68653;SDS011;55636;51.108;13.622;2023-03-01T05:40:04;19.48;;;13.70;;
68653;SDS011;55636;51.108;13.622;2023-03-01T05:41:13;19.08;;;14.70;;
68653;SDS011;55636;51.108;13.622;2023-03-01T05:42:16;20.35;;;14.63;;
68653;SDS011;55636;51.108;13.622;2023-03-01T05:43:18;20.45;;;14.30;;
68653;SDS011;55636;51.108;13.622;2023-03-01T05:44:21;18.55;;;14.25;;
68653;SDS011;55636;51.108;13.622;2023-03-01T05:45:24;20.80;;;14.30;;
68653;SDS011;55636;51.108;13.622;2023-03-01T05:46:28;20.17;;;14.43;;
68653;SDS011;55636;51.108;13.622;2023-03-01T05:47:31;20.75;;;14.35;;
68653;SDS011;55636;51.108;13.622;2023-03-01T05:48:35;21.00;;;14.00;;
68653;SDS011;55636;51.108;13.622;2023-03-01T05:49:37;19.80;;;14.38;;
68653;SDS011;55636;51.108;13.622;2023-03-01T05:50:41;21.23;;;14.43;;
68653;SDS011;55636;51.108;13.622;2023-03-01T05:51:48;19.95;;;14.32;;
68653;SDS011;55636;51.108;13.622;2023-03-01T05:52:54;20.13;;;14.15;;
68653;SDS011;55636;51.108;13.622;2023-03-01T05:54:00;21.58;;;14.70;;
68653;SDS011;55636;51.108;13.622;2023-03-01T05:55:04;20.90;;;14.20;;
68653;SDS011;55636;51.108;13.622;2023-03-01T05:56:07;22.75;;;15.00;;
68653;SDS011;55636;51.108;13.622;2023-03-01T05:57:09;19.08;;;14.63;;
68653;SDS011;55636;51.108;13.622;2023-03-01T05:58:14;23.67;;;14.90;;
68653;SDS011;55636;51.108;13.622;2023-03-01T05:59:18;19.60;;;13.90;;
68653;SDS011;55636;51.108;13.622;2023-03-01T06:00:21;20.55;;;15.05;;
68653;SDS011;55636;51.108;13.622;2023-03-01T06:01:26;23.08;;;15.18;;
68653;SDS011;55636;51.108;13.622;2023-03-01T06:02:28;20.38;;;15.02;;
68653;SDS011;55636;51.108;13.622;2023-03-01T06:03:32;22.27;;;15.05;;
68653;SDS011;55636;51.108;13.622;2023-03-01T06:04:34;22.05;;;15.15;;
68653;SDS011;55636;51.108;13.622;2023-03-01T06:05:36;18.95;;;14.73;;
68653;SDS011;55636;51.108;13.622;2023-03-01T06:06:39;20.63;;;15.35;;
68653;SDS011;55636;51.108;13.622;2023-03-01T06:07:41;22.88;;;15.20;;
68653;SDS011;55636;51.108;13.622;2023-03-01T06:08:43;24.98;;;15.48;;
68653;SDS011;55636;51.108;13.622;2023-03-01T06:09:46;28.00;;;15.73;;
68653;SDS011;55636;51.108;13.622;2023-03-01T06:10:48;19.80;;;15.27;;
68653;SDS011;55636;51.108;13.622;2023-03-01T06:11:50;27.38;;;15.63;;
68653;SDS011;55636;51.108;13.622;2023-03-01T06:12:53;19.77;;;14.55;;
68653;SDS011;55636;51.108;13.622;2023-03-01T06:13:55;22.63;;;15.45;;
68653;SDS011;55636;51.108;13.622;2023-03-01T06:14:58;26.42;;;15.88;;
68653;SDS011;55636;51.108;13.622;2023-03-01T06:16:03;22.30;;;15.00;;
68653;SDS011;55636;51.108;13.622;2023-03-01T06:17:06;22.98;;;15.07;;
68653;SDS011;55636;51.108;13.622;2023-03-01T06:18:08;22.55;;;14.77;;
68653;SDS011;55636;51.108;13.622;2023-03-01T06:19:11;23.00;;;14.80;;
68653;SDS011;55636;51.108;13.622;2023-03-01T06:20:15;22.63;;;14.88;;